Time;durP1;ratioP1;P1;durP2;ratioP2;P2;SDS_P1;SDS_P2;PMS_P1;PMS_P2;Temp;Humidity;BMP_temperature;BMP_pressure;BME280_temperature;BME280_humidity;BME280_pressure;Samples;Min_cycle;Max_cycle;Signal;HPM_P1;HPM_P2
2022/08/15 00:03:54;;;;;;;7.45;5.20;;;;;;;;;;10381182;28;20401;-87
2022/08/15 00:08:58;;;;;;;6.50;5.43;;;;;;;;;;10381612;28;20770;-87
2022/08/15 00:14:05;;;;;;;6.43;5.77;;;;;;;;;;10383143;28;20510;-87
2022/08/15 00:19:17;;;;;;;7.05;6.10;;;;;;;;;;10381157;28;20438;-87
2022/08/15 00:24:21;;;;;;;7.50;6.05;;;;;;;;;;10382449;28;20409;-87
2022/08/15 00:29:26;;;;;;;8.03;6.40;;;;;;;;;;10379631;28;20716;-86
2022/08/15 00:34:29;;;;;;;7.00;6.40;;;;;;;;;;10380549;28;20500;-87
2022/08/15 00:39:31;;;;;;;8.85;5.70;;;;;;;;;;10379240;28;20413;-86
2022/08/15 00:44:40;;;;;;;7.23;5.13;;;;;;;;;;10382663;28;20494;-87
2022/08/15 00:49:45;;;;;;;5.97;5.03;;;;;;;;;;10380717;28;20495;-86
2022/08/15 00:54:52;;;;;;;5.35;4.78;;;;;;;;;;10380214;28;20895;-86
2022/08/15 00:59:58;;;;;;;5.32;4.70;;;;;;;;;;10379407;28;20398;-87
2022/08/15 01:05:02;;;;;;;5.20;4.70;;;;;;;;;;10379499;28;20890;-86
2022/08/15 01:10:05;;;;;;;5.20;4.55;;;;;;;;;;10381789;28;20778;-87
2022/08/15 01:15:11;;;;;;;4.72;4.32;;;;;;;;;;10383613;28;20480;-87
2022/08/15 01:20:19;;;;;;;4.93;4.43;;;;;;;;;;10379777;28;20494;-87
2022/08/15 01:25:25;;;;;;;5.87;4.77;;;;;;;;;;10379094;28;20487;-87
2022/08/15 01:30:31;;;;;;;7.30;5.35;;;;;;;;;;10375335;28;20427;-87
2022/08/15 01:35:34;;;;;;;5.20;4.60;;;;;;;;;;10378905;28;20411;-86
2022/08/15 01:40:48;;;;;;;5.95;4.40;;;;;;;;;;10381755;28;20414;-87
2022/08/15 01:45:52;;;;;;;4.95;4.55;;;;;;;;;;10377837;28;20401;-86
2022/08/15 01:51:01;;;;;;;5.88;4.60;;;;;;;;;;10378856;28;20421;-86
2022/08/15 01:56:09;;;;;;;5.43;4.40;;;;;;;;;;10382973;28;20833;-87
2022/08/15 02:01:15;;;;;;;5.00;4.32;;;;;;;;;;10386391;28;20535;-87
2022/08/15 02:06:21;;;;;;;6.03;4.45;;;;;;;;;;10386059;28;20437;-86
2022/08/15 02:11:28;;;;;;;5.37;4.43;;;;;;;;;;10391540;28;20414;-87
2022/08/15 02:16:35;;;;;;;5.93;4.53;;;;;;;;;;10382107;28;20487;-86
2022/08/15 02:21:38;;;;;;;6.03;4.68;;;;;;;;;;10386299;28;20402;-86
2022/08/15 02:26:41;;;;;;;5.50;4.35;;;;;;;;;;10383492;28;20941;-87
2022/08/15 02:31:43;;;;;;;4.97;4.47;;;;;;;;;;10385103;28;20437;-87
2022/08/15 02:36:48;;;;;;;5.80;4.72;;;;;;;;;;10386538;28;20814;-87
2022/08/15 02:41:52;;;;;;;6.40;5.13;;;;;;;;;;10390072;28;20450;-86
2022/08/15 02:46:55;;;;;;;6.75;4.85;;;;;;;;;;10384398;28;20929;-86
2022/08/15 02:51:58;;;;;;;5.50;5.00;;;;;;;;;;10384247;28;20899;-86
2022/08/15 02:57:01;;;;;;;5.53;4.90;;;;;;;;;;10382332;28;20416;-87
2022/08/15 03:02:03;;;;;;;6.78;5.20;;;;;;;;;;10384028;28;20406;-87
2022/08/15 03:07:05;;;;;;;6.90;5.90;;;;;;;;;;10383535;28;20403;-87
2022/08/15 03:12:09;;;;;;;6.23;5.63;;;;;;;;;;10381249;28;20737;-87
2022/08/15 03:17:11;;;;;;;6.30;5.75;;;;;;;;;;10384185;28;20421;-87
2022/08/15 03:22:13;;;;;;;8.47;5.90;;;;;;;;;;10383635;28;21179;-87
2022/08/15 03:27:17;;;;;;;7.30;5.68;;;;;;;;;;10380984;28;20778;-87
2022/08/15 03:32:18;;;;;;;5.80;5.30;;;;;;;;;;10382954;28;20434;-87
2022/08/15 03:37:20;;;;;;;8.18;6.20;;;;;;;;;;10385503;28;20968;-87
2022/08/15 07:58:03;;;;;;;3.75;3.30;;;;;;;;;;12225458;23;20421;-93
2022/08/15 08:03:10;;;;;;;3.22;2.92;;;;;;;;;;10102913;29;21003;-96
2022/08/15 15:42:44;;;;;;;3.27;2.93;;;;;;;;;;11843308;23;20456;-89
2022/08/15 15:47:49;;;;;;;3.78;2.90;;;;;;;;;;10046491;29;20410;-87
2022/08/15 15:52:53;;;;;;;4.72;3.20;;;;;;;;;;10037581;29;20521;-91
2022/08/15 15:57:57;;;;;;;2.63;2.42;;;;;;;;;;10005116;29;20430;-90
2022/08/15 16:03:01;;;;;;;3.00;2.70;;;;;;;;;;10009620;29;20446;-90
2022/08/15 16:08:03;;;;;;;3.20;2.57;;;;;;;;;;9998362;29;20515;-90
2022/08/15 16:13:14;;;;;;;3.42;2.67;;;;;;;;;;10003380;29;20438;-89
2022/08/15 16:18:22;;;;;;;6.78;3.45;;;;;;;;;;10008748;29;20597;-90
2022/08/15 16:23:30;;;;;;;3.58;2.70;;;;;;;;;;10009100;29;20511;-89
2022/08/15 16:28:39;;;;;;;3.63;2.37;;;;;;;;;;9997077;29;20844;-89
2022/08/15 16:33:46;;;;;;;3.93;2.23;;;;;;;;;;10008139;29;20533;-89
2022/08/15 16:38:52;;;;;;;2.92;2.40;;;;;;;;;;10006873;29;21014;-89
2022/08/15 16:44:00;;;;;;;2.83;2.58;;;;;;;;;;10003732;29;20516;-91
2022/08/15 16:49:13;;;;;;;2.70;2.50;;;;;;;;;;10001155;29;20532;-89
2022/08/15 16:54:33;;;;;;;2.88;2.42;;;;;;;;;;9997852;29;20529;-89
2022/08/15 16:59:44;;;;;;;4.37;2.50;;;;;;;;;;9989447;29;20796;-89
2022/08/15 17:05:03;;;;;;;3.25;2.33;;;;;;;;;;10000732;29;20781;-89
2022/08/15 17:10:24;;;;;;;3.83;2.80;;;;;;;;;;9989154;29;20944;-88
2022/08/15 17:15:35;;;;;;;4.75;2.83;;;;;;;;;;9997484;29;20483;-89
2022/08/15 17:20:45;;;;;;;3.38;2.67;;;;;;;;;;9996842;29;20512;-89
2022/08/15 17:25:53;;;;;;;2.93;2.73;;;;;;;;;;9984355;29;20439;-89
2022/08/15 17:31:00;;;;;;;3.23;2.70;;;;;;;;;;9998819;29;20513;-89
2022/08/15 17:36:06;;;;;;;4.10;3.20;;;;;;;;;;10006059;29;20525;-89
2022/08/15 17:41:11;;;;;;;5.88;3.42;;;;;;;;;;10009761;29;20848;-89
2022/08/15 17:46:18;;;;;;;4.18;3.40;;;;;;;;;;10013688;29;20502;-88
2022/08/15 17:51:26;;;;;;;4.03;3.63;;;;;;;;;;10013246;29;20690;-89
2022/08/15 17:56:34;;;;;;;4.78;3.55;;;;;;;;;;10008735;29;20430;-89
2022/08/15 18:01:38;;;;;;;4.40;3.58;;;;;;;;;;10007658;29;20446;-89
2022/08/15 18:06:42;;;;;;;4.17;3.77;;;;;;;;;;10013195;29;20931;-89
2022/08/15 18:11:45;;;;;;;4.40;3.58;;;;;;;;;;10007984;29;20440;-88
2022/08/15 18:16:55;;;;;;;3.97;3.50;;;;;;;;;;10012744;29;20450;-89
2022/08/15 18:22:00;;;;;;;4.03;3.70;;;;;;;;;;10012632;29;20425;-89
2022/08/15 18:27:04;;;;;;;6.35;3.30;;;;;;;;;;10005054;29;20478;-89
2022/08/15 18:32:19;;;;;;;4.05;3.63;;;;;;;;;;10011680;29;20875;-89
2022/08/15 18:37:22;;;;;;;4.35;3.53;;;;;;;;;;10010878;29;20430;-89
2022/08/15 18:42:30;;;;;;;5.18;4.05;;;;;;;;;;10006851;29;20474;-89
2022/08/15 18:47:41;;;;;;;4.30;3.85;;;;;;;;;;10004118;29;20479;-89
2022/08/15 18:52:48;;;;;;;7.22;5.70;;;;;;;;;;10011657;29;20446;-89
2022/08/15 18:57:51;;;;;;;4.88;4.10;;;;;;;;;;9996253;29;20453;-89
2022/08/15 19:03:00;;;;;;;4.90;4.18;;;;;;;;;;10011445;29;20474;-89
2022/08/15 19:08:06;;;;;;;4.90;4.47;;;;;;;;;;10007325;29;20418;-89
2022/08/15 19:13:15;;;;;;;4.83;4.10;;;;;;;;;;10000152;29;20603;-89
2022/08/15 19:18:34;;;;;;;12.55;9.63;;;;;;;;;;10010608;29;20983;-88
2022/08/15 19:23:37;;;;;;;5.43;4.90;;;;;;;;;;10003978;29;20422;-89
2022/08/15 19:28:51;;;;;;;5.00;4.50;;;;;;;;;;10004209;29;20911;-89
2022/08/15 19:34:04;;;;;;;5.78;4.70;;;;;;;;;;10010124;29;20537;-89
2022/08/15 19:39:15;;;;;;;7.32;5.70;;;;;;;;;;10003717;29;21171;-89
2022/08/15 19:44:33;;;;;;;5.22;4.63;;;;;;;;;;10004857;29;20513;-89
2022/08/15 19:55:13;;;;;;;5.20;4.13;;;;;;;;;;9994515;29;20434;-89
2022/08/15 20:00:20;;;;;;;4.70;4.20;;;;;;;;;;10008554;29;20446;-89
2022/08/15 20:05:33;;;;;;;4.97;3.80;;;;;;;;;;10008494;29;20430;-89
2022/08/15 20:10:41;;;;;;;5.40;3.60;;;;;;;;;;9997717;29;20502;-89
2022/08/15 20:15:54;;;;;;;4.97;3.55;;;;;;;;;;10008077;29;20536;-89
2022/08/15 20:21:03;;;;;;;4.50;3.97;;;;;;;;;;10008942;29;20483;-89
2022/08/15 20:26:17;;;;;;;4.97;3.70;;;;;;;;;;9993747;29;20461;-89
2022/08/15 20:31:30;;;;;;;3.60;3.30;;;;;;;;;;10010283;29;20592;-88
2022/08/15 20:36:37;;;;;;;4.97;3.90;;;;;;;;;;10001684;29;20471;-88
2022/08/15 20:41:43;;;;;;;6.60;3.78;;;;;;;;;;10008409;29;20438;-88
2022/08/15 20:46:50;;;;;;;4.88;3.88;;;;;;;;;;10015560;29;20451;-89
2022/08/15 20:51:57;;;;;;;4.60;3.70;;;;;;;;;;10009167;29;20437;-89
2022/08/15 20:57:01;;;;;;;6.70;6.00;;;;;;;;;;10001427;29;20461;-89
2022/08/15 21:02:24;;;;;;;7.05;5.65;;;;;;;;;;10000919;29;20450;-89
2022/08/15 21:08:08;;;;;;;3.20;2.90;;;;;;;;;;10008640;29;20426;-89
2022/08/15 21:13:16;;;;;;;3.63;3.10;;;;;;;;;;10014909;29;20507;-89
2022/08/15 21:18:29;;;;;;;6.88;2.30;;;;;;;;;;10007678;29;20761;-88
2022/08/15 21:23:35;;;;;;;4.77;1.93;;;;;;;;;;10001611;29;20414;-91
2022/08/15 21:28:41;;;;;;;4.18;1.75;;;;;;;;;;9999842;29;20608;-90
2022/08/15 21:34:21;;;;;;;3.38;1.30;;;;;;;;;;10007782;29;20526;-89
2022/08/15 21:39:56;;;;;;;1.80;1.45;;;;;;;;;;9986037;29;20811;-89
2022/08/15 21:45:10;;;;;;;2.55;1.50;;;;;;;;;;10002834;29;20923;-89
2022/08/15 21:50:39;;;;;;;1.48;1.33;;;;;;;;;;10002112;29;20443;-89
2022/08/15 21:55:46;;;;;;;2.10;1.70;;;;;;;;;;9992847;29;20443;-89
2022/08/15 22:00:50;;;;;;;3.05;2.40;;;;;;;;;;10007585;29;20450;-89
2022/08/15 22:05:57;;;;;;;2.17;1.98;;;;;;;;;;10006318;29;20461;-88
2022/08/15 22:11:06;;;;;;;2.10;1.90;;;;;;;;;;10005590;29;20838;-89
2022/08/15 22:16:09;;;;;;;2.50;2.20;;;;;;;;;;10006972;29;20426;-88
2022/08/15 22:21:14;;;;;;;3.97;2.55;;;;;;;;;;10013515;29;20461;-88
2022/08/15 22:26:21;;;;;;;3.53;2.70;;;;;;;;;;10006934;29;20426;-89
2022/08/15 22:31:23;;;;;;;4.85;2.65;;;;;;;;;;10013477;29;20453;-89
2022/08/15 22:36:25;;;;;;;4.00;2.47;;;;;;;;;;10013043;29;20438;-89
2022/08/15 22:41:28;;;;;;;3.88;2.60;;;;;;;;;;10008005;29;20517;-89
2022/08/15 22:46:34;;;;;;;3.77;2.50;;;;;;;;;;10012397;29;20478;-89
2022/08/15 22:51:40;;;;;;;3.38;3.03;;;;;;;;;;10006541;29;20509;-89
2022/08/15 22:56:43;;;;;;;4.47;3.10;;;;;;;;;;10004843;29;20534;-88
2022/08/15 23:01:50;;;;;;;3.92;2.70;;;;;;;;;;10012349;29;20418;-88
2022/08/15 23:06:59;;;;;;;5.43;3.17;;;;;;;;;;10005423;29;20915;-88
2022/08/15 23:12:07;;;;;;;5.95;2.92;;;;;;;;;;10005122;29;20522;-89
2022/08/15 23:17:13;;;;;;;4.73;3.10;;;;;;;;;;10005948;29;20545;-88
2022/08/15 23:22:17;;;;;;;6.05;3.38;;;;;;;;;;10011157;29;20995;-88
2022/08/15 23:27:24;;;;;;;4.22;3.33;;;;;;;;;;9999283;29;20507;-87
2022/08/15 23:32:33;;;;;;;4.22;3.58;;;;;;;;;;10011147;29;20578;-88
2022/08/15 23:37:39;;;;;;;3.50;2.77;;;;;;;;;;10004355;29;20505;-88
2022/08/15 23:42:48;;;;;;;4.37;3.13;;;;;;;;;;10006106;29;20468;-89
2022/08/15 23:47:50;;;;;;;4.70;3.60;;;;;;;;;;10010337;29;20422;-89
2022/08/15 23:52:54;;;;;;;5.25;3.63;;;;;;;;;;10009118;29;20438;-88
2022/08/15 23:57:59;;;;;;;4.70;3.85;;;;;;;;;;10008172;29;20453;-86
